Lloyd, Montana
Current Conditions -  °F | °C
As of 7:25 PM on Wednesday 17 Dec 2014 (Local Time) from KHVR Reporting Station
Few Clouds Few Clouds  
Wind Chill: 14°   Ceiling: Unl
Heat Index: 14°   Visibility: 9mi
Dew Point: 13°   Wind: 0mph
Humidity: 95%   Direction: NA
Pressure: 29.92"   Gusts: NA
Location:  48.29°N, 109.36°W
Report Text: KHVR 180225Z AUTO 00000KT 9SM FEW006 M10/M11 A2992 RMK AO2 I1000 T11001106
Loading
Personal Weather Stations






























Interactive Weather Map New forecast layout! Learn more

10-Day Weather Forecast

Advertisements
Track Severe Weather on mobile